Time;durP1;ratioP1;P1;durP2;ratioP2;P2;SDS_P1;SDS_P2;PMS_P1;PMS_P2;Temp;Humidity;BMP_temperature;BMP_pressure;BME280_temperature;BME280_humidity;BME280_pressure;Samples;Min_cycle;Max_cycle;Signal;HPM_P1;HPM_P2
2024/03/14 00:01:07;;;;;;;3.37;3.17;;;9.30;89.10;;;;;;4992366;28;20228;-67
2024/03/14 00:03:36;;;;;;;3.70;3.40;;;9.30;89.00;;;;;;4991676;28;20421;-67
2024/03/14 00:06:03;;;;;;;3.60;3.30;;;9.30;88.70;;;;;;4987766;28;20208;-67
2024/03/14 00:08:30;;;;;;;4.00;3.60;;;9.40;88.40;;;;;;4990606;28;20204;-68
2024/03/14 00:10:56;;;;;;;3.40;3.20;;;9.30;88.60;;;;;;4993980;28;20212;-67
2024/03/14 00:13:24;;;;;;;3.70;3.40;;;9.30;88.60;;;;;;4989647;28;20218;-68
2024/03/14 00:15:51;;;;;;;3.77;3.47;;;9.30;88.20;;;;;;4986422;28;20204;-67
2024/03/14 00:18:18;;;;;;;4.37;3.47;;;9.30;88.20;;;;;;4988907;28;20324;-67
2024/03/14 00:20:45;;;;;;;3.73;3.27;;;9.30;88.10;;;;;;4986909;28;20212;-68
2024/03/14 00:23:12;;;;;;;3.63;3.33;;;9.30;88.30;;;;;;4991702;28;20228;-67
2024/03/14 00:25:40;;;;;;;3.73;3.33;;;9.30;88.00;;;;;;4990130;28;20668;-67
2024/03/14 00:28:09;;;;;;;3.60;3.30;;;9.30;88.20;;;;;;4989557;28;20275;-67
2024/03/14 00:30:36;;;;;;;3.73;3.43;;;9.30;87.80;;;;;;4991089;28;20208;-67
2024/03/14 00:33:02;;;;;;;3.77;3.47;;;9.30;87.90;;;;;;4984488;28;20266;-68
2024/03/14 00:35:29;;;;;;;3.60;3.20;;;9.20;88.40;;;;;;4987218;28;20255;-67
2024/03/14 00:37:56;;;;;;;3.30;3.00;;;9.30;88.20;;;;;;4991151;28;20220;-67
2024/03/14 00:40:22;;;;;;;3.93;3.40;;;9.20;88.20;;;;;;4989643;28;20208;-67
2024/03/14 00:42:51;;;;;;;4.57;4.17;;;9.20;88.50;;;;;;4989928;28;20225;-68
2024/03/14 00:45:19;;;;;;;4.17;3.50;;;9.10;88.50;;;;;;4988970;28;20213;-67
2024/03/14 00:47:45;;;;;;;4.73;3.67;;;9.00;89.00;;;;;;4991961;28;20247;-67
2024/03/14 00:50:13;;;;;;;3.23;3.03;;;9.00;89.20;;;;;;4993152;28;20559;-67
2024/03/14 00:52:40;;;;;;;3.93;3.60;;;8.90;89.60;;;;;;4993712;28;20227;-67
2024/03/14 00:55:09;;;;;;;4.47;3.40;;;8.90;89.60;;;;;;4991185;28;20370;-67
2024/03/14 00:57:36;;;;;;;3.60;3.30;;;8.90;90.00;;;;;;4987226;28;20652;-67
2024/03/14 01:00:10;;;;;;;3.63;3.33;;;8.80;89.60;;;;;;4993972;28;20215;-67
2024/03/14 01:02:36;;;;;;;4.57;3.20;;;8.80;89.70;;;;;;4991268;28;20278;-68
2024/03/14 01:05:05;;;;;;;4.73;3.57;;;8.80;89.90;;;;;;4987414;28;20204;-67
2024/03/14 01:07:32;;;;;;;3.53;3.30;;;8.80;89.60;;;;;;5000741;28;20219;-67
2024/03/14 01:09:59;;;;;;;3.73;3.43;;;8.80;89.70;;;;;;4996534;28;20215;-68
2024/03/14 01:12:25;;;;;;;3.87;3.30;;;8.80;89.40;;;;;;4993252;28;20239;-68
2024/03/14 01:14:52;;;;;;;3.67;3.37;;;8.70;89.70;;;;;;4988506;28;20247;-68
2024/03/14 01:17:19;;;;;;;3.67;3.37;;;8.70;89.70;;;;;;4985193;28;20231;-68
2024/03/14 01:19:46;;;;;;;3.57;3.10;;;8.70;89.50;;;;;;4990136;28;20691;-67
2024/03/14 01:22:13;;;;;;;3.90;3.60;;;8.70;90.00;;;;;;4989643;28;20232;-68
2024/03/14 01:24:40;;;;;;;3.60;3.30;;;8.70;89.90;;;;;;4993442;28;20222;-68
2024/03/14 01:27:07;;;;;;;5.03;3.50;;;8.60;90.10;;;;;;4993694;28;20701;-68
2024/03/14 01:29:33;;;;;;;3.80;3.50;;;8.60;90.10;;;;;;4992933;28;20216;-68
2024/03/14 01:32:00;;;;;;;3.50;3.30;;;8.70;90.00;;;;;;4990664;28;20230;-68
2024/03/14 01:34:27;;;;;;;3.97;3.53;;;8.70;89.80;;;;;;4993974;28;20230;-68
2024/03/14 01:36:54;;;;;;;4.03;3.20;;;8.70;89.50;;;;;;4994387;28;20698;-68
2024/03/14 01:39:21;;;;;;;3.77;3.47;;;8.60;89.40;;;;;;4989451;28;20231;-68
2024/03/14 01:41:47;;;;;;;3.30;3.00;;;8.60;89.60;;;;;;4991227;28;20228;-68
2024/03/14 01:44:14;;;;;;;3.10;2.90;;;8.60;89.50;;;;;;4992928;28;20238;-68
2024/03/14 01:46:41;;;;;;;3.80;3.50;;;8.70;89.20;;;;;;4995513;28;20208;-68
2024/03/14 01:49:07;;;;;;;3.87;3.57;;;8.60;89.00;;;;;;4985219;28;20207;-68
2024/03/14 01:51:34;;;;;;;3.73;3.43;;;8.60;88.90;;;;;;4997998;28;20238;-68
2024/03/14 01:54:01;;;;;;;3.43;3.20;;;8.60;88.90;;;;;;4997180;28;20269;-67
2024/03/14 01:56:27;;;;;;;3.70;3.40;;;8.70;88.80;;;;;;4984387;28;20679;-68
2024/03/14 01:58:54;;;;;;;3.67;3.37;;;8.70;88.20;;;;;;4989649;28;20226;-68
2024/03/14 02:01:21;;;;;;;3.57;3.27;;;8.70;87.70;;;;;;4996519;28;20219;-68
2024/03/14 02:03:48;;;;;;;3.53;3.23;;;8.70;87.40;;;;;;4996796;28;20254;-68
2024/03/14 02:06:15;;;;;;;4.00;3.60;;;8.60;87.50;;;;;;4991058;28;20210;-68
2024/03/14 02:08:41;;;;;;;4.40;4.00;;;8.60;87.80;;;;;;4997219;28;20327;-67
2024/03/14 02:11:08;;;;;;;4.47;4.03;;;8.50;88.10;;;;;;4999603;28;20226;-68
2024/03/14 02:13:34;;;;;;;5.23;4.30;;;8.50;87.70;;;;;;4992891;28;20592;-68
2024/03/14 02:16:01;;;;;;;4.67;4.17;;;8.50;88.60;;;;;;4992906;28;20211;-68
2024/03/14 02:18:28;;;;;;;4.83;4.00;;;8.50;88.30;;;;;;4992665;28;20232;-68
2024/03/14 02:20:55;;;;;;;5.97;5.10;;;8.50;88.50;;;;;;4995554;28;20215;-68
2024/03/14 02:23:22;;;;;;;4.87;4.10;;;8.40;88.70;;;;;;4994231;28;20282;-68
2024/03/14 02:25:48;;;;;;;5.97;4.83;;;8.40;88.70;;;;;;4996700;28;20218;-68
2024/03/14 02:28:15;;;;;;;7.13;5.00;;;8.50;88.50;;;;;;4995493;28;20603;-67
2024/03/14 02:30:42;;;;;;;7.27;5.23;;;8.50;88.60;;;;;;4999207;28;20651;-68
2024/03/14 02:33:09;;;;;;;6.83;4.60;;;8.50;87.80;;;;;;4996106;28;20243;-67
2024/03/14 02:35:36;;;;;;;5.87;4.43;;;8.50;87.70;;;;;;4996780;28;20678;-67
2024/03/14 02:38:02;;;;;;;6.00;4.37;;;8.50;87.90;;;;;;4992602;28;20228;-67
2024/03/14 02:40:29;;;;;;;8.13;4.80;;;8.50;87.50;;;;;;4994317;28;20261;-67
2024/03/14 02:42:55;;;;;;;3.63;3.33;;;8.50;87.40;;;;;;4996823;28;20274;-67
2024/03/14 02:45:22;;;;;;;4.20;3.80;;;8.50;87.50;;;;;;4997192;28;20216;-67
2024/03/14 02:47:49;;;;;;;5.40;3.90;;;8.50;87.40;;;;;;4992739;28;20199;-67
2024/03/14 02:50:16;;;;;;;3.43;3.13;;;8.50;87.30;;;;;;4996937;28;20222;-67
2024/03/14 02:52:43;;;;;;;4.73;3.27;;;8.50;87.20;;;;;;4995225;28;20258;-68
2024/03/14 02:55:09;;;;;;;3.30;3.10;;;8.50;87.70;;;;;;4994954;28;20216;-67
2024/03/14 02:57:36;;;;;;;3.13;2.93;;;8.50;87.50;;;;;;4985656;28;20597;-68
2024/03/14 03:00:10;;;;;;;3.37;3.07;;;8.50;87.60;;;;;;4990662;28;20237;-67
2024/03/14 03:02:39;;;;;;;3.20;3.00;;;8.50;87.00;;;;;;4994798;28;20606;-68
2024/03/14 03:05:05;;;;;;;3.40;3.07;;;8.50;87.10;;;;;;4992328;28;20222;-68
2024/03/14 03:07:33;;;;;;;3.37;3.10;;;8.50;87.20;;;;;;4991925;28;20209;-68
2024/03/14 03:10:00;;;;;;;5.60;2.90;;;8.40;87.20;;;;;;4995730;28;20639;-67
2024/03/14 03:12:26;;;;;;;2.80;2.60;;;8.40;87.60;;;;;;4989845;28;20242;-67
2024/03/14 03:14:53;;;;;;;2.63;2.43;;;8.40;87.60;;;;;;4996351;28;20212;-67
2024/03/14 03:17:20;;;;;;;2.80;2.60;;;8.40;87.50;;;;;;4996262;28;20208;-68
2024/03/14 03:19:47;;;;;;;3.10;2.90;;;8.30;87.90;;;;;;4996272;28;20315;-67
2024/03/14 03:22:13;;;;;;;3.37;3.07;;;8.30;88.60;;;;;;4987888;28;20228;-68
2024/03/14 03:24:39;;;;;;;3.67;3.37;;;8.30;88.20;;;;;;4987273;28;20200;-68
2024/03/14 03:27:13;;;;;;;2.80;2.60;;;8.20;88.10;;;;;;4995913;28;20214;-67
2024/03/14 03:29:38;;;;;;;3.17;2.97;;;8.20;88.60;;;;;;4991231;28;20206;-67
2024/03/14 03:32:05;;;;;;;3.10;2.90;;;8.20;88.90;;;;;;4994801;28;20219;-67
2024/03/14 03:34:31;;;;;;;2.80;2.60;;;8.20;89.60;;;;;;4995830;28;20697;-67
2024/03/14 03:36:57;;;;;;;2.63;2.43;;;8.10;88.40;;;;;;4994715;28;20271;-67
2024/03/14 03:39:25;;;;;;;3.00;2.80;;;8.10;89.20;;;;;;4992102;28;20224;-67
2024/03/14 03:41:52;;;;;;;3.80;2.57;;;8.10;89.60;;;;;;4987835;28;20282;-68
2024/03/14 03:44:20;;;;;;;3.13;2.90;;;8.10;89.70;;;;;;4995044;28;20208;-67
2024/03/14 03:46:47;;;;;;;3.57;3.27;;;8.10;89.20;;;;;;4993881;28;20249;-67
2024/03/14 03:49:12;;;;;;;3.23;3.03;;;8.10;89.60;;;;;;4994857;28;20207;-67
2024/03/14 03:51:39;;;;;;;2.93;2.73;;;8.00;89.70;;;;;;4995472;28;20228;-67
2024/03/14 03:54:05;;;;;;;3.20;3.00;;;8.00;89.40;;;;;;4993810;28;20227;-68
2024/03/14 03:56:31;;;;;;;3.27;3.07;;;7.90;89.90;;;;;;4990447;28;20204;-67
2024/03/14 03:58:58;;;;;;;3.30;3.00;;;8.00;90.10;;;;;;4995411;28;20604;-67
2024/03/14 04:01:23;;;;;;;3.20;3.00;;;7.90;89.90;;;;;;5005587;28;20763;-67
2024/03/14 04:03:51;;;;;;;2.90;2.70;;;7.90;89.60;;;;;;4981848;28;20207;-67
2024/03/14 04:06:16;;;;;;;3.20;2.90;;;7.90;89.90;;;;;;4995312;28;20290;-68
2024/03/14 04:08:45;;;;;;;3.60;3.30;;;7.80;89.90;;;;;;4991877;28;20243;-67
2024/03/14 04:11:10;;;;;;;3.50;3.20;;;7.90;90.10;;;;;;4989947;28;20208;-68
2024/03/14 04:13:37;;;;;;;3.73;3.30;;;7.90;89.40;;;;;;4993994;28;20592;-67
2024/03/14 04:16:04;;;;;;;3.20;3.00;;;7.90;89.30;;;;;;4996369;28;20223;-67
2024/03/14 04:18:31;;;;;;;3.00;2.80;;;7.90;89.10;;;;;;4988297;28;20685;-68
2024/03/14 04:20:57;;;;;;;3.10;2.90;;;8.00;89.10;;;;;;4988883;28;20208;-67
2024/03/14 04:23:24;;;;;;;2.90;2.70;;;8.00;89.00;;;;;;4994957;28;20717;-67
2024/03/14 04:25:51;;;;;;;3.30;3.00;;;8.00;89.40;;;;;;4987075;28;20214;-68
2024/03/14 04:28:18;;;;;;;3.57;3.27;;;8.00;89.80;;;;;;4992011;28;20214;-68
2024/03/14 04:30:45;;;;;;;3.07;2.87;;;8.00;89.60;;;;;;4992422;28;20217;-67
2024/03/14 04:33:12;;;;;;;3.30;3.10;;;8.10;89.60;;;;;;4994119;28;20238;-67
2024/03/14 04:35:40;;;;;;;3.23;3.03;;;8.10;88.90;;;;;;5000710;28;20269;-67
2024/03/14 04:38:06;;;;;;;3.80;3.50;;;8.10;88.70;;;;;;4994213;28;20228;-67
2024/03/14 04:40:33;;;;;;;4.20;3.30;;;8.00;88.80;;;;;;4994963;28;20597;-68
2024/03/14 04:43:00;;;;;;;3.40;3.10;;;8.00;89.30;;;;;;4988300;28;20605;-67
2024/03/14 04:45:26;;;;;;;3.40;3.20;;;7.90;89.50;;;;;;4991151;28;20231;-67
2024/03/14 04:47:54;;;;;;;3.80;3.50;;;8.00;89.80;;;;;;4990330;28;20217;-67
2024/03/14 04:50:21;;;;;;;3.23;3.03;;;8.00;89.30;;;;;;4999092;28;20207;-67
2024/03/14 04:52:48;;;;;;;3.20;3.00;;;8.00;88.90;;;;;;4990889;28;20234;-67
2024/03/14 04:55:14;;;;;;;3.23;3.03;;;7.90;88.60;;;;;;4986587;28;20228;-67
2024/03/14 04:57:41;;;;;;;3.70;3.37;;;7.90;89.00;;;;;;4992769;28;20357;-67
2024/03/14 05:00:11;;;;;;;3.50;3.20;;;7.90;89.10;;;;;;4993069;28;20297;-68
2024/03/14 05:02:38;;;;;;;3.07;2.80;;;7.90;89.10;;;;;;4989143;28;20256;-67
2024/03/14 05:05:05;;;;;;;3.00;2.80;;;7.90;88.80;;;;;;4998267;28;20211;-67
2024/03/14 05:07:31;;;;;;;3.77;3.47;;;7.90;88.70;;;;;;4994315;28;20207;-67
2024/03/14 05:09:58;;;;;;;3.73;3.00;;;8.00;88.90;;;;;;4991861;28;20330;-67
2024/03/14 05:12:25;;;;;;;3.30;3.10;;;8.00;88.40;;;;;;4988951;28;20235;-67
2024/03/14 05:14:51;;;;;;;3.23;3.00;;;8.00;88.00;;;;;;4985859;28;20219;-67
2024/03/14 05:17:17;;;;;;;3.90;3.60;;;8.00;87.80;;;;;;4997252;28;20265;-67
2024/03/14 05:19:44;;;;;;;3.27;2.80;;;8.00;87.60;;;;;;4992913;28;20238;-67
2024/03/14 05:22:11;;;;;;;3.67;3.37;;;8.10;86.60;;;;;;4993932;28;20231;-68
2024/03/14 05:24:37;;;;;;;2.70;2.50;;;8.10;86.60;;;;;;4993863;28;20210;-67
2024/03/14 05:27:04;;;;;;;2.83;2.60;;;8.10;86.50;;;;;;4993044;28;20222;-67
2024/03/14 05:29:31;;;;;;;3.17;2.97;;;8.10;85.60;;;;;;4985109;28;20225;-68
2024/03/14 05:31:57;;;;;;;3.63;3.33;;;8.10;85.60;;;;;;4991956;28;20238;-67
2024/03/14 05:34:24;;;;;;;3.00;2.80;;;8.10;85.80;;;;;;4990478;28;20567;-67
2024/03/14 05:36:51;;;;;;;3.37;3.07;;;8.10;85.90;;;;;;4993370;28;20746;-67
2024/03/14 05:39:21;;;;;;;3.00;2.77;;;8.10;85.10;;;;;;4993673;28;20222;-67
2024/03/14 05:41:47;;;;;;;2.33;2.23;;;8.10;84.90;;;;;;4989036;28;20279;-67
2024/03/14 05:44:14;;;;;;;2.70;2.50;;;8.10;84.90;;;;;;4993458;28;20222;-67
2024/03/14 05:46:41;;;;;;;3.00;2.63;;;8.10;84.90;;;;;;4987525;28;20303;-67
2024/03/14 05:49:08;;;;;;;3.10;2.87;;;8.10;84.10;;;;;;4992842;28;20200;-67
2024/03/14 05:51:35;;;;;;;3.00;2.70;;;8.20;83.80;;;;;;4993239;28;20269;-67
2024/03/14 05:54:02;;;;;;;2.83;2.70;;;8.20;83.40;;;;;;4988656;28;20211;-67
2024/03/14 05:56:29;;;;;;;2.97;2.77;;;8.20;83.20;;;;;;4993092;28;20242;-67
2024/03/14 05:58:55;;;;;;;2.50;2.37;;;8.30;82.60;;;;;;4985303;28;20224;-68
2024/03/14 06:01:22;;;;;;;2.33;2.20;;;8.30;82.50;;;;;;4987081;28;20256;-67
2024/03/14 06:03:49;;;;;;;2.17;1.97;;;8.30;82.20;;;;;;4991369;28;20206;-67
2024/03/14 06:06:18;;;;;;;2.50;2.30;;;8.30;81.20;;;;;;4999233;28;20210;-67
2024/03/14 06:08:45;;;;;;;2.60;2.40;;;8.30;81.00;;;;;;4994090;28;20234;-66
2024/03/14 06:11:11;;;;;;;3.10;2.90;;;8.30;81.20;;;;;;4988386;28;20215;-67
2024/03/14 06:13:40;;;;;;;3.50;2.80;;;8.30;81.20;;;;;;4992598;28;20219;-67
2024/03/14 06:26:48;;;;;;;3.17;2.67;;;8.70;78.20;;;;;;5451043;23;21854;-66
2024/03/14 06:29:15;;;;;;;2.90;2.33;;;8.70;77.20;;;;;;4998257;28;20211;-67
2024/03/14 06:31:42;;;;;;;2.83;2.33;;;8.70;77.60;;;;;;5003560;28;20239;-67
2024/03/14 06:34:08;;;;;;;3.13;2.80;;;8.70;78.40;;;;;;5009395;28;20207;-68
2024/03/14 06:36:35;;;;;;;2.07;1.97;;;8.70;78.00;;;;;;5007355;28;20295;-67
2024/03/14 06:39:06;;;;;;;2.90;2.60;;;8.70;78.00;;;;;;5007257;28;20228;-67
2024/03/14 06:41:32;;;;;;;2.90;2.70;;;8.70;78.20;;;;;;5013303;28;20275;-67
2024/03/14 06:43:59;;;;;;;2.20;2.10;;;8.80;78.00;;;;;;5000650;28;20208;-67
2024/03/14 06:46:26;;;;;;;2.10;2.00;;;8.80;77.10;;;;;;4998290;28;20207;-67
2024/03/14 06:48:54;;;;;;;2.73;2.47;;;8.90;76.10;;;;;;5000904;28;20203;-66
2024/03/14 06:51:21;;;;;;;3.10;2.10;;;9.00;76.80;;;;;;5009796;28;20710;-67
2024/03/14 06:53:47;;;;;;;3.20;2.13;;;9.00;76.20;;;;;;4986290;28;20200;-66
2024/03/14 06:56:17;;;;;;;3.40;2.27;;;9.10;75.90;;;;;;5005019;28;20229;-66
2024/03/14 06:58:46;;;;;;;2.63;2.30;;;9.10;75.90;;;;;;5013904;28;20641;-66
2024/03/14 07:01:12;;;;;;;3.23;2.40;;;9.20;75.80;;;;;;5011163;28;20207;-66
2024/03/14 07:03:39;;;;;;;2.60;2.40;;;9.20;74.80;;;;;;5013381;28;20341;-66
2024/03/14 07:06:05;;;;;;;2.60;2.40;;;9.40;75.80;;;;;;5012611;28;20235;-66
2024/03/14 07:08:32;;;;;;;2.37;2.17;;;9.40;74.70;;;;;;5003904;28;20220;-66
2024/03/14 07:10:59;;;;;;;2.70;2.50;;;9.50;74.60;;;;;;5013945;28;20212;-66
2024/03/14 07:13:25;;;;;;;3.30;2.40;;;9.50;74.70;;;;;;5011059;28;20207;-66
2024/03/14 07:15:52;;;;;;;2.30;2.20;;;9.60;74.20;;;;;;5000555;28;20216;-69
2024/03/14 07:18:19;;;;;;;2.77;2.57;;;9.60;73.20;;;;;;5003564;28;20217;-66
2024/03/14 07:20:46;;;;;;;4.50;2.63;;;9.70;73.30;;;;;;5005341;28;20248;-68
2024/03/14 07:23:13;;;;;;;3.50;3.20;;;9.80;72.80;;;;;;4988198;28;20241;-69
2024/03/14 07:25:40;;;;;;;3.37;2.27;;;9.80;72.90;;;;;;5003779;28;20732;-65
2024/03/14 07:28:09;;;;;;;2.70;2.50;;;9.80;72.50;;;;;;4996776;28;20277;-66
2024/03/14 07:30:35;;;;;;;2.57;2.37;;;9.90;71.70;;;;;;5002079;28;20216;-64
2024/03/14 07:33:02;;;;;;;3.53;2.87;;;9.90;71.90;;;;;;5003427;28;20425;-64
2024/03/14 07:35:29;;;;;;;4.53;2.80;;;9.90;71.90;;;;;;5010132;28;20214;-67
2024/03/14 07:37:55;;;;;;;2.77;2.50;;;9.90;71.80;;;;;;4986353;28;20214;-66
2024/03/14 07:40:32;;;;;;;4.20;3.50;;;9.90;72.40;;;;;;4989021;28;20707;-69
2024/03/14 07:42:59;;;;;;;2.80;2.60;;;10.00;70.30;;;;;;5006559;28;20254;-65
2024/03/14 07:45:25;;;;;;;3.97;2.90;;;10.00;70.50;;;;;;5002778;28;20213;-65
2024/03/14 07:47:52;;;;;;;3.73;3.00;;;10.20;71.90;;;;;;5007016;28;20692;-65
2024/03/14 07:50:18;;;;;;;3.23;2.93;;;10.30;71.90;;;;;;5014546;28;20206;-65
2024/03/14 07:52:45;;;;;;;3.73;3.07;;;10.50;71.20;;;;;;5005141;28;20284;-64
2024/03/14 07:55:12;;;;;;;3.30;3.00;;;10.50;71.30;;;;;;5003786;28;20234;-66
2024/03/14 07:57:38;;;;;;;3.37;2.80;;;10.50;71.20;;;;;;5011359;28;20221;-65
2024/03/14 08:00:05;;;;;;;4.10;3.20;;;10.60;71.50;;;;;;5005617;28;20725;-65
2024/03/14 08:02:33;;;;;;;3.50;3.20;;;10.60;69.70;;;;;;5007181;28;20301;-66
2024/03/14 08:05:02;;;;;;;4.20;3.90;;;10.60;70.00;;;;;;5022091;28;20203;-70
2024/03/14 08:07:29;;;;;;;4.03;3.63;;;10.60;69.90;;;;;;5010739;28;20207;-66
2024/03/14 08:09:57;;;;;;;6.63;4.00;;;10.60;70.80;;;;;;5008250;28;20205;-66
2024/03/14 08:12:24;;;;;;;4.77;3.83;;;10.80;69.80;;;;;;5011132;28;20250;-65
2024/03/14 08:14:58;;;;;;;4.23;3.83;;;10.80;69.00;;;;;;5007118;28;20212;-65
2024/03/14 08:17:26;;;;;;;6.10;3.67;;;10.90;70.00;;;;;;5002284;28;20595;-66
2024/03/14 08:19:56;;;;;;;4.07;3.77;;;10.90;70.70;;;;;;5006041;28;20247;-65
2024/03/14 08:22:23;;;;;;;4.73;3.50;;;10.90;68.30;;;;;;5008070;28;20228;-65
2024/03/14 08:24:52;;;;;;;3.90;3.30;;;11.00;68.00;;;;;;5008448;28;20584;-64
2024/03/14 08:27:19;;;;;;;3.57;3.27;;;11.10;66.90;;;;;;5004495;28;20211;-65
2024/03/14 08:29:46;;;;;;;5.93;3.30;;;11.10;67.90;;;;;;5007109;28;20218;-65
2024/03/14 08:32:15;;;;;;;3.87;3.47;;;11.40;66.20;;;;;;4977001;28;20227;-69
2024/03/14 08:34:41;;;;;;;4.33;3.60;;;11.50;65.40;;;;;;5000035;28;20591;-65
2024/03/14 08:37:10;;;;;;;3.77;3.47;;;11.80;64.80;;;;;;4999835;28;20627;-68
2024/03/14 08:39:36;;;;;;;3.90;3.53;;;12.00;64.20;;;;;;5011195;28;20294;-65
2024/03/14 08:42:03;;;;;;;3.80;3.50;;;12.10;63.40;;;;;;5012330;28;20612;-67
2024/03/14 08:44:30;;;;;;;3.30;3.10;;;12.40;64.10;;;;;;5005780;28;20214;-65
2024/03/14 08:46:56;;;;;;;4.17;3.30;;;12.60;61.80;;;;;;5002524;28;20207;-66
2024/03/14 08:49:23;;;;;;;3.10;2.60;;;12.80;61.50;;;;;;5012156;28;20216;-65
2024/03/14 08:51:50;;;;;;;3.40;3.10;;;12.80;58.90;;;;;;5010986;28;20601;-65
2024/03/14 08:54:33;;;;;;;2.93;2.60;;;13.00;58.20;;;;;;5008968;28;20432;-64
2024/03/14 08:57:00;;;;;;;3.03;2.40;;;13.20;57.60;;;;;;5009203;28;20236;-65
2024/03/14 08:59:26;;;;;;;3.67;3.10;;;13.40;58.20;;;;;;5010194;28;20236;-66
2024/03/14 09:01:54;;;;;;;5.27;3.20;;;13.70;57.70;;;;;;5004110;28;20241;-66
2024/03/14 09:04:21;;;;;;;4.37;3.40;;;14.10;57.50;;;;;;5002834;28;20302;-67
2024/03/14 09:06:50;;;;;;;4.77;3.63;;;14.00;56.80;;;;;;4998017;28;20211;-67
2024/03/14 09:09:26;;;;;;;4.30;3.23;;;14.20;56.70;;;;;;5009999;28;20239;-65
2024/03/14 09:11:53;;;;;;;3.13;2.93;;;14.20;55.90;;;;;;5003665;28;20603;-66
2024/03/14 09:14:20;;;;;;;3.47;3.17;;;14.10;57.10;;;;;;5011973;28;20213;-67
2024/03/14 09:16:47;;;;;;;3.90;3.47;;;14.30;56.00;;;;;;5010017;28;20569;-66
2024/03/14 09:19:14;;;;;;;2.90;2.60;;;14.30;56.50;;;;;;5000611;28;20664;-67
2024/03/14 09:21:41;;;;;;;2.33;1.80;;;14.50;54.70;;;;;;5002243;28;20282;-67
2024/03/14 09:24:11;;;;;;;1.60;1.50;;;14.40;52.80;;;;;;4997508;28;20290;-66
2024/03/14 09:26:38;;;;;;;1.73;1.63;;;14.60;50.20;;;;;;5006855;28;20713;-67
2024/03/14 09:29:05;;;;;;;1.90;1.80;;;14.90;52.70;;;;;;5009684;28;20211;-66
2024/03/14 09:31:32;;;;;;;1.73;1.63;;;15.20;51.10;;;;;;5005738;28;20223;-69
2024/03/14 09:33:59;;;;;;;2.80;1.80;;;15.30;49.60;;;;;;5006643;28;20208;-66
2024/03/14 09:36:26;;;;;;;2.83;1.90;;;14.80;49.10;;;;;;5008274;28;20211;-66
2024/03/14 09:38:53;;;;;;;1.70;1.30;;;15.10;49.00;;;;;;5003749;28;20751;-67
2024/03/14 09:41:20;;;;;;;2.40;1.50;;;15.50;48.10;;;;;;5007328;28;20230;-66
2024/03/14 09:43:46;;;;;;;2.07;1.30;;;15.40;47.30;;;;;;5003447;28;20218;-66
2024/03/14 09:46:13;;;;;;;2.37;1.90;;;15.50;48.90;;;;;;5005254;28;20572;-66
2024/03/14 09:48:40;;;;;;;2.33;1.40;;;15.60;46.50;;;;;;5004608;28;20212;-67
2024/03/14 09:51:07;;;;;;;2.00;1.50;;;15.90;46.50;;;;;;5009346;28;20215;-66
2024/03/14 09:53:35;;;;;;;1.70;1.60;;;15.90;46.10;;;;;;5000450;28;20270;-66
2024/03/14 09:56:02;;;;;;;1.40;1.30;;;15.90;47.40;;;;;;5002888;28;20252;-67
2024/03/14 09:58:29;;;;;;;4.23;1.27;;;16.10;45.30;;;;;;5007408;28;20674;-66
2024/03/14 10:00:56;;;;;;;1.93;1.40;;;16.70;45.80;;;;;;5008790;28;20227;-66
2024/03/14 10:03:23;;;;;;;1.35;1.25;;;16.60;43.60;;;;;;5005124;28;20231;-66
2024/03/14 10:05:51;;;;;;;3.30;1.10;;;16.80;43.40;;;;;;5006588;28;20650;-66
2024/03/14 10:08:18;;;;;;;1.15;1.05;;;17.10;43.00;;;;;;5003409;28;20215;-67
2024/03/14 10:10:45;;;;;;;2.75;1.48;;;17.60;43.10;;;;;;5013216;28;20207;-66
2024/03/14 10:13:12;;;;;;;2.47;1.13;;;18.00;42.30;;;;;;5010624;28;20234;-67
2024/03/14 10:15:38;;;;;;;1.55;1.20;;;18.70;41.10;;;;;;5014529;28;20215;-70
2024/03/14 10:18:05;;;;;;;1.27;1.20;;;18.70;41.30;;;;;;5014319;28;20211;-67
2024/03/14 10:20:31;;;;;;;1.52;1.05;;;18.60;39.00;;;;;;5013048;28;20610;-65
2024/03/14 10:22:59;;;;;;;1.80;1.08;;;19.00;38.40;;;;;;5007378;28;20487;-67
2024/03/14 10:25:28;;;;;;;1.92;1.13;;;19.10;37.70;;;;;;5010084;28;20270;-66
2024/03/14 10:27:55;;;;;;;1.70;0.95;;;20.00;36.80;;;;;;5008985;28;20225;-67
2024/03/14 10:30:23;;;;;;;1.38;1.20;;;18.80;39.00;;;;;;5014405;28;20222;-67
2024/03/14 10:32:50;;;;;;;1.42;1.15;;;18.70;38.00;;;;;;5011183;28;20719;-67
2024/03/14 10:35:19;;;;;;;1.45;1.35;;;20.00;35.50;;;;;;5009495;28;20265;-66
2024/03/14 10:37:46;;;;;;;1.15;1.10;;;21.40;32.20;;;;;;5014422;28;21123;-67
2024/03/14 10:40:13;;;;;;;0.90;0.90;;;22.30;34.10;;;;;;5013715;28;20288;-67
2024/03/14 10:42:40;;;;;;;1.45;1.13;;;23.00;33.30;;;;;;5001974;28;20679;-68
2024/03/14 10:45:06;;;;;;;2.17;1.02;;;23.30;30.70;;;;;;5008603;28;20213;-67
2024/03/14 10:47:33;;;;;;;0.82;0.82;;;23.40;29.30;;;;;;5003823;28;20207;-66
2024/03/14 10:50:08;;;;;;;2.28;1.10;;;23.40;29.30;;;;;;5002804;28;20199;-65
2024/03/14 10:52:35;;;;;;;1.25;1.00;;;24.90;29.30;;;;;;4989673;28;20546;-64
2024/03/14 10:55:02;;;;;;;1.13;0.90;;;25.80;26.50;;;;;;5007577;28;20673;-68
2024/03/14 10:57:30;;;;;;;1.58;0.85;;;26.30;26.20;;;;;;5011595;28;20579;-66
2024/03/14 10:59:57;;;;;;;1.48;0.80;;;25.60;40.00;;;;;;5008765;28;20337;-66
2024/03/14 11:02:25;;;;;;;1.13;0.90;;;25.00;27.10;;;;;;5005283;28;20227;-64
2024/03/14 11:04:50;;;;;;;1.02;0.98;;;24.50;29.00;;;;;;5010272;28;20300;-65
2024/03/14 11:07:17;;;;;;;0.82;0.82;;;24.10;28.40;;;;;;5011280;28;20219;-64
2024/03/14 11:09:44;;;;;;;2.10;0.90;;;24.80;29.30;;;;;;5002203;28;20214;-64
2024/03/14 11:12:11;;;;;;;1.23;0.90;;;25.40;29.90;;;;;;5001739;28;20227;-65
2024/03/14 11:14:38;;;;;;;1.23;1.00;;;25.60;25.80;;;;;;5003572;28;20226;-65
2024/03/14 11:17:04;;;;;;;0.70;0.70;;;27.80;24.30;;;;;;5005117;28;20217;-64
2024/03/14 11:19:32;;;;;;;0.70;0.70;;;26.80;24.40;;;;;;5002668;28;20210;-66
2024/03/14 11:21:59;;;;;;;1.13;0.57;;;25.90;27.20;;;;;;5002026;28;20226;-68
2024/03/14 11:24:29;;;;;;;1.10;0.95;;;25.90;25.00;;;;;;5006052;28;20210;-66
2024/03/14 11:26:58;;;;;;;1.55;0.77;;;27.20;24.20;;;;;;5001604;28;20254;-68
2024/03/14 11:29:24;;;;;;;1.02;0.73;;;27.10;24.60;;;;;;5001295;28;20253;-65
2024/03/14 11:31:51;;;;;;;2.95;1.10;;;25.70;25.60;;;;;;5010543;28;20222;-65
2024/03/14 11:34:17;;;;;;;1.23;1.13;;;26.00;27.90;;;;;;5005791;28;20393;-65
2024/03/14 11:36:44;;;;;;;1.65;0.90;;;25.60;27.70;;;;;;4998913;28;20698;-65
2024/03/14 11:39:11;;;;;;;0.60;0.60;;;24.80;27.80;;;;;;5009121;28;20218;-65
2024/03/14 11:41:38;;;;;;;2.10;1.20;;;23.50;28.40;;;;;;5004561;28;20230;-64
2024/03/14 11:44:07;;;;;;;1.15;1.00;;;22.30;29.70;;;;;;5008211;28;20306;-65
2024/03/14 11:46:34;;;;;;;1.92;1.83;;;22.00;29.70;;;;;;5007164;28;20203;-64
2024/03/14 11:49:00;;;;;;;1.73;1.38;;;22.10;30.60;;;;;;5008051;28;20222;-69
2024/03/14 11:51:28;;;;;;;2.38;0.93;;;22.80;29.60;;;;;;5008010;28;20237;-65
2024/03/14 11:53:58;;;;;;;0.80;0.80;;;24.00;28.50;;;;;;5002146;28;20204;-65
2024/03/14 11:56:25;;;;;;;1.73;1.23;;;24.30;28.10;;;;;;5011336;28;20218;-65
2024/03/14 11:58:52;;;;;;;1.25;0.90;;;23.80;27.60;;;;;;5001619;28;20207;-64
2024/03/14 12:01:18;;;;;;;1.10;0.90;;;23.90;27.90;;;;;;5001848;28;20616;-65
2024/03/14 12:03:45;;;;;;;2.70;0.88;;;23.20;28.20;;;;;;5002518;28;20227;-65
2024/03/14 12:06:17;;;;;;;1.50;1.00;;;22.90;31.30;;;;;;5004289;28;20203;-64
2024/03/14 12:08:43;;;;;;;1.10;1.00;;;23.00;29.40;;;;;;5008323;28;20262;-64
2024/03/14 12:11:10;;;;;;;1.20;1.10;;;23.60;28.40;;;;;;5005160;28;20203;-64
2024/03/14 12:13:37;;;;;;;1.45;1.10;;;23.50;27.90;;;;;;5009309;28;20203;-64
2024/03/14 12:16:04;;;;;;;1.98;0.85;;;23.20;28.50;;;;;;5011197;28;20218;-65
2024/03/14 12:18:31;;;;;;;1.50;0.90;;;24.10;28.80;;;;;;5010447;28;20280;-64
2024/03/14 12:20:59;;;;;;;1.27;1.17;;;24.00;29.60;;;;;;5004625;28;20249;-64
2024/03/14 12:23:27;;;;;;;1.05;1.00;;;22.80;27.90;;;;;;5010479;28;20234;-65
2024/03/14 12:25:55;;;;;;;2.88;0.90;;;22.20;29.30;;;;;;5003810;28;20203;-64
2024/03/14 12:28:22;;;;;;;1.40;1.00;;;21.90;29.70;;;;;;5009837;28;20562;-66
2024/03/14 12:30:48;;;;;;;1.13;0.82;;;21.80;30.20;;;;;;5009666;28;20219;-67
2024/03/14 12:33:15;;;;;;;2.25;0.90;;;22.20;32.50;;;;;;5011111;28;20233;-65
2024/03/14 12:35:44;;;;;;;1.20;1.00;;;22.80;30.80;;;;;;5010460;28;20238;-65
2024/03/14 12:38:10;;;;;;;0.90;0.80;;;22.10;30.00;;;;;;5011720;28;20203;-65
2024/03/14 12:40:37;;;;;;;1.67;1.10;;;22.20;29.90;;;;;;5007155;28;20806;-65
2024/03/14 12:43:03;;;;;;;0.98;0.88;;;22.10;30.00;;;;;;5001601;28;20223;-64
2024/03/14 12:45:31;;;;;;;2.42;0.80;;;21.40;30.20;;;;;;5003659;28;20203;-65
2024/03/14 12:47:59;;;;;;;1.20;1.02;;;21.20;30.80;;;;;;5004888;28;20207;-65
2024/03/14 12:50:28;;;;;;;1.05;0.95;;;21.90;30.60;;;;;;5004577;28;20203;-67
2024/03/14 12:52:54;;;;;;;1.40;1.30;;;22.70;29.40;;;;;;5002320;28;20233;-65
2024/03/14 12:55:23;;;;;;;1.25;1.02;;;23.00;29.20;;;;;;5011141;28;20214;-65
2024/03/14 12:57:49;;;;;;;1.20;1.10;;;23.10;28.10;;;;;;5005850;28;20202;-66
2024/03/14 13:00:17;;;;;;;1.25;1.10;;;24.40;27.40;;;;;;5002152;28;20769;-66
2024/03/14 13:02:44;;;;;;;1.88;0.90;;;25.40;25.70;;;;;;5004149;28;20231;-67